createdAt,value
2022-08-22T00:04:03.502Z,10
2022-08-22T00:33:18.069Z,8
2022-08-22T01:02:12.564Z,10
2022-08-22T01:31:32.627Z,10
2022-08-22T02:00:53.969Z,10
2022-08-22T02:30:08.641Z,13
2022-08-22T02:59:16.876Z,10
2022-08-22T03:28:27.299Z,11
2022-08-22T03:57:51.312Z,13
2022-08-22T04:27:15.113Z,13
2022-08-22T04:56:38.541Z,13
2022-08-22T05:26:07.456Z,11
2022-08-22T05:55:30.292Z,13
2022-08-22T06:24:48.925Z,15
2022-08-22T06:54:05.810Z,16
2022-08-22T07:23:30.157Z,13
2022-08-22T07:52:34.461Z,13
2022-08-22T08:22:01.186Z,14
2022-08-22T08:51:24.486Z,12
2022-08-22T09:20:48.284Z,15
2022-08-22T09:50:07.534Z,13
2022-08-22T10:19:11.752Z,11
2022-08-22T10:48:31.802Z,10
2022-08-22T11:17:54.514Z,10
2022-08-22T11:47:03.061Z,9
2022-08-22T12:16:18.933Z,9
2022-08-22T12:45:23.045Z,9
2022-08-22T13:14:45.759Z,11
2022-08-22T13:43:49.254Z,11
2022-08-22T14:12:51.219Z,11
2022-08-22T14:41:52.274Z,12
2022-08-22T15:10:45.511Z,11
2022-08-22T15:40:13.483Z,13
2022-08-22T16:09:26.509Z,13
2022-08-22T16:38:45.560Z,14
2022-08-22T17:08:12.871Z,20
2022-08-22T17:37:43.998Z,14
2022-08-22T18:07:01.426Z,11
2022-08-22T18:36:17.861Z,10
2022-08-22T19:05:14.181Z,12
2022-08-22T19:34:15.141Z,13
2022-08-22T20:03:39.383Z,17
2022-08-22T20:33:02.016Z,15
2022-08-22T21:02:19.358Z,14
2022-08-22T21:31:38.057Z,13
2022-08-22T22:01:01.953Z,14
2022-08-22T22:30:17.626Z,15
2022-08-22T22:59:14.903Z,14
2022-08-22T23:28:33.297Z,16
2022-08-22T23:57:58.302Z,16
